Accueil
METAR-TAF:

METAR-TAF

Aéroports :

Florennes, Belgique

Base aérienne de Florennes

latitude: 50-14N, longitude: 004-39E, altitude: 279 m

Observation

Le bulletin a été fait il y a 43 minutes, à 21:25 UTC
Vent 6 kt de est
Température 4°C
Humidité 81%
Pression 1012 hPa
Visibilité 10 km ou plus

METAR: EBFS 222125Z AUTO 09006KT 9999 FEW130/// BKN150/// 04/01 Q1012 BLU

Heure: 23:08 (22:08 UTC)

Prévision

Le bulletin a été fait il y a 6 heures et 23 minutes, à 15:45 UTC
Prévision valable du 22 à 19 UTC au 23 à 07 UTC
Vent 8 kt de est/sud-est
Visibilité 10 km ou plus
Nuages épars à une hauteur de 4000 ft
Nuages épars à une hauteur de 18000 ft
Evoluant progressivement
du 22 à 00 UTC au 22 à 02 UTC
Vent 5 kt de est

TAF: EBFS 221545Z 2219/2307 12008KT 9999 SCT040 SCT180 BECMG 2200/2202 09005KT

Observations et prévisions météorologiques de plus de 4000 aéroports (messages METAR et TAF).

Les stations disponibles sont représentées par des disques jaunes et rouges sur la carte.

Passer la souris dessus pour voir le nom de la station.

Cliquer dessus pour voir les observations et prévisions météorologiques.

Pour changer de carte: cliquez sur les boutons verts avec une croix noire pour zoomer, sur le bouton vert avec un tiret pour effectuer un zoom arrière, ou sur les flèches vertes pour les cartes adjacentes.


METAR-TAF: